sensor_id;sensor_type;location;lat;lon;timestamp;P1;durP1;ratioP1;P2;durP2;ratioP2
61435;SDS011;47304;47.456;19.160;2023-11-21T00:00:25;21.60;;;13.70;;
61435;SDS011;47304;47.456;19.160;2023-11-21T00:02:54;23.30;;;13.30;;
61435;SDS011;47304;47.456;19.160;2023-11-21T00:05:23;25.10;;;15.10;;
61435;SDS011;47304;47.456;19.160;2023-11-21T00:07:51;22.30;;;14.60;;
61435;SDS011;47304;47.456;19.160;2023-11-21T00:10:20;20.90;;;13.60;;
61435;SDS011;47304;47.456;19.160;2023-11-21T00:12:48;23.90;;;14.40;;
61435;SDS011;47304;47.456;19.160;2023-11-21T00:15:17;20.70;;;13.40;;
61435;SDS011;47304;47.456;19.160;2023-11-21T00:17:45;21.00;;;13.80;;
61435;SDS011;47304;47.456;19.160;2023-11-21T00:20:13;20.90;;;12.90;;
61435;SDS011;47304;47.456;19.160;2023-11-21T00:22:42;20.90;;;13.30;;
61435;SDS011;47304;47.456;19.160;2023-11-21T00:25:10;24.20;;;13.80;;
61435;SDS011;47304;47.456;19.160;2023-11-21T00:27:39;23.30;;;12.80;;
61435;SDS011;47304;47.456;19.160;2023-11-21T00:30:08;21.40;;;13.60;;
61435;SDS011;47304;47.456;19.160;2023-11-21T00:32:38;22.80;;;13.20;;
61435;SDS011;47304;47.456;19.160;2023-11-21T00:35:07;21.90;;;14.40;;
61435;SDS011;47304;47.456;19.160;2023-11-21T00:37:36;21.40;;;13.50;;
61435;SDS011;47304;47.456;19.160;2023-11-21T00:40:05;21.00;;;13.10;;
61435;SDS011;47304;47.456;19.160;2023-11-21T00:42:34;22.70;;;13.50;;
61435;SDS011;47304;47.456;19.160;2023-11-21T00:45:04;23.90;;;13.60;;
61435;SDS011;47304;47.456;19.160;2023-11-21T00:47:33;22.60;;;13.70;;
61435;SDS011;47304;47.456;19.160;2023-11-21T00:50:02;21.60;;;13.70;;
61435;SDS011;47304;47.456;19.160;2023-11-21T00:52:32;22.80;;;13.70;;
61435;SDS011;47304;47.456;19.160;2023-11-21T00:55:00;22.60;;;14.00;;
61435;SDS011;47304;47.456;19.160;2023-11-21T00:57:29;20.70;;;13.00;;
61435;SDS011;47304;47.456;19.160;2023-11-21T00:59:57;20.60;;;14.00;;
61435;SDS011;47304;47.456;19.160;2023-11-21T01:02:26;20.00;;;13.10;;
61435;SDS011;47304;47.456;19.160;2023-11-21T01:04:54;20.80;;;13.10;;
61435;SDS011;47304;47.456;19.160;2023-11-21T01:07:22;21.60;;;13.70;;
61435;SDS011;47304;47.456;19.160;2023-11-21T01:09:51;22.20;;;13.20;;
61435;SDS011;47304;47.456;19.160;2023-11-21T01:12:19;23.00;;;14.30;;
61435;SDS011;47304;47.456;19.160;2023-11-21T01:14:48;24.70;;;14.50;;
61435;SDS011;47304;47.456;19.160;2023-11-21T01:17:16;23.10;;;14.20;;
61435;SDS011;47304;47.456;19.160;2023-11-21T01:19:45;23.00;;;14.40;;
61435;SDS011;47304;47.456;19.160;2023-11-21T01:22:13;23.20;;;14.20;;
61435;SDS011;47304;47.456;19.160;2023-11-21T01:24:42;21.60;;;13.80;;
61435;SDS011;47304;47.456;19.160;2023-11-21T01:27:10;22.10;;;13.90;;
61435;SDS011;47304;47.456;19.160;2023-11-21T01:29:39;22.30;;;14.00;;
61435;SDS011;47304;47.456;19.160;2023-11-21T01:32:07;20.70;;;13.90;;
61435;SDS011;47304;47.456;19.160;2023-11-21T01:34:36;22.70;;;14.00;;
61435;SDS011;47304;47.456;19.160;2023-11-21T01:37:05;22.40;;;13.30;;
61435;SDS011;47304;47.456;19.160;2023-11-21T01:39:33;21.00;;;13.30;;
61435;SDS011;47304;47.456;19.160;2023-11-21T01:42:02;23.20;;;13.00;;
61435;SDS011;47304;47.456;19.160;2023-11-21T01:44:30;21.20;;;14.10;;
61435;SDS011;47304;47.456;19.160;2023-11-21T01:46:59;23.70;;;13.70;;
61435;SDS011;47304;47.456;19.160;2023-11-21T01:49:27;23.60;;;14.40;;
61435;SDS011;47304;47.456;19.160;2023-11-21T01:51:56;20.10;;;13.30;;
61435;SDS011;47304;47.456;19.160;2023-11-21T01:54:24;26.90;;;14.30;;
61435;SDS011;47304;47.456;19.160;2023-11-21T01:56:53;24.90;;;13.40;;
61435;SDS011;47304;47.456;19.160;2023-11-21T01:59:22;22.50;;;13.20;;
61435;SDS011;47304;47.456;19.160;2023-11-21T02:01:52;21.50;;;13.80;;
61435;SDS011;47304;47.456;19.160;2023-11-21T02:04:20;27.00;;;14.80;;
61435;SDS011;47304;47.456;19.160;2023-11-21T02:06:49;24.30;;;14.10;;
61435;SDS011;47304;47.456;19.160;2023-11-21T02:09:17;20.60;;;13.10;;
61435;SDS011;47304;47.456;19.160;2023-11-21T02:11:52;23.10;;;13.60;;
61435;SDS011;47304;47.456;19.160;2023-11-21T02:14:21;23.30;;;13.80;;
61435;SDS011;47304;47.456;19.160;2023-11-21T02:16:50;23.20;;;15.20;;
61435;SDS011;47304;47.456;19.160;2023-11-21T02:19:19;21.70;;;13.50;;
61435;SDS011;47304;47.456;19.160;2023-11-21T02:21:48;23.40;;;13.60;;
61435;SDS011;47304;47.456;19.160;2023-11-21T02:24:18;20.40;;;12.70;;
61435;SDS011;47304;47.456;19.160;2023-11-21T02:26:47;22.10;;;13.40;;
61435;SDS011;47304;47.456;19.160;2023-11-21T02:29:16;22.80;;;13.50;;
61435;SDS011;47304;47.456;19.160;2023-11-21T02:31:45;22.70;;;13.50;;
61435;SDS011;47304;47.456;19.160;2023-11-21T02:34:14;21.00;;;12.90;;
61435;SDS011;47304;47.456;19.160;2023-11-21T02:36:42;22.50;;;13.20;;
61435;SDS011;47304;47.456;19.160;2023-11-21T02:39:11;21.70;;;13.50;;
61435;SDS011;47304;47.456;19.160;2023-11-21T02:41:40;22.00;;;13.50;;
61435;SDS011;47304;47.456;19.160;2023-11-21T02:44:09;22.60;;;13.00;;
61435;SDS011;47304;47.456;19.160;2023-11-21T02:46:37;24.60;;;13.80;;
61435;SDS011;47304;47.456;19.160;2023-11-21T02:49:06;21.40;;;12.90;;
61435;SDS011;47304;47.456;19.160;2023-11-21T02:51:34;21.00;;;12.90;;
61435;SDS011;47304;47.456;19.160;2023-11-21T02:54:03;20.50;;;12.50;;
61435;SDS011;47304;47.456;19.160;2023-11-21T02:56:32;23.20;;;13.00;;
61435;SDS011;47304;47.456;19.160;2023-11-21T02:59:01;20.20;;;12.40;;
61435;SDS011;47304;47.456;19.160;2023-11-21T03:01:29;19.30;;;12.10;;
61435;SDS011;47304;47.456;19.160;2023-11-21T03:03:58;19.40;;;12.40;;
61435;SDS011;47304;47.456;19.160;2023-11-21T03:06:26;20.20;;;11.70;;
61435;SDS011;47304;47.456;19.160;2023-11-21T03:08:55;21.60;;;12.70;;
61435;SDS011;47304;47.456;19.160;2023-11-21T03:11:24;20.80;;;13.00;;
61435;SDS011;47304;47.456;19.160;2023-11-21T03:13:52;22.10;;;12.90;;
61435;SDS011;47304;47.456;19.160;2023-11-21T03:16:20;21.30;;;13.10;;
61435;SDS011;47304;47.456;19.160;2023-11-21T03:18:49;19.50;;;12.80;;
61435;SDS011;47304;47.456;19.160;2023-11-21T03:21:17;19.90;;;12.50;;
61435;SDS011;47304;47.456;19.160;2023-11-21T03:23:46;21.60;;;12.40;;
61435;SDS011;47304;47.456;19.160;2023-11-21T03:26:14;23.10;;;13.00;;
61435;SDS011;47304;47.456;19.160;2023-11-21T03:28:43;21.60;;;13.10;;
61435;SDS011;47304;47.456;19.160;2023-11-21T03:31:11;23.30;;;12.70;;
61435;SDS011;47304;47.456;19.160;2023-11-21T03:33:40;21.90;;;12.80;;
61435;SDS011;47304;47.456;19.160;2023-11-21T03:36:09;20.20;;;12.30;;
61435;SDS011;47304;47.456;19.160;2023-11-21T03:38:38;21.30;;;11.80;;
61435;SDS011;47304;47.456;19.160;2023-11-21T03:41:06;21.70;;;13.10;;
61435;SDS011;47304;47.456;19.160;2023-11-21T03:43:35;22.60;;;13.60;;
61435;SDS011;47304;47.456;19.160;2023-11-21T03:46:04;20.50;;;13.40;;
61435;SDS011;47304;47.456;19.160;2023-11-21T03:48:32;22.60;;;12.10;;
61435;SDS011;47304;47.456;19.160;2023-11-21T03:51:01;20.40;;;12.90;;
61435;SDS011;47304;47.456;19.160;2023-11-21T03:53:29;19.80;;;12.00;;
61435;SDS011;47304;47.456;19.160;2023-11-21T03:55:58;20.60;;;12.50;;
61435;SDS011;47304;47.456;19.160;2023-11-21T03:58:28;20.00;;;12.60;;
61435;SDS011;47304;47.456;19.160;2023-11-21T04:00:57;24.50;;;13.30;;
61435;SDS011;47304;47.456;19.160;2023-11-21T04:03:26;23.60;;;14.60;;
61435;SDS011;47304;47.456;19.160;2023-11-21T04:05:54;23.10;;;14.60;;
61435;SDS011;47304;47.456;19.160;2023-11-21T04:08:23;24.60;;;14.60;;
61435;SDS011;47304;47.456;19.160;2023-11-21T04:10:51;21.40;;;14.00;;
61435;SDS011;47304;47.456;19.160;2023-11-21T04:13:20;21.50;;;12.90;;
61435;SDS011;47304;47.456;19.160;2023-11-21T04:15:48;20.40;;;13.20;;
61435;SDS011;47304;47.456;19.160;2023-11-21T04:18:17;19.60;;;12.80;;
61435;SDS011;47304;47.456;19.160;2023-11-21T04:20:46;20.80;;;13.10;;
61435;SDS011;47304;47.456;19.160;2023-11-21T04:23:14;21.20;;;12.70;;
61435;SDS011;47304;47.456;19.160;2023-11-21T04:25:43;20.10;;;12.50;;
61435;SDS011;47304;47.456;19.160;2023-11-21T04:28:11;21.70;;;12.50;;
61435;SDS011;47304;47.456;19.160;2023-11-21T04:30:40;22.30;;;13.30;;
61435;SDS011;47304;47.456;19.160;2023-11-21T04:33:08;19.40;;;13.20;;
61435;SDS011;47304;47.456;19.160;2023-11-21T04:35:36;23.40;;;13.40;;
61435;SDS011;47304;47.456;19.160;2023-11-21T04:38:05;21.90;;;13.00;;
61435;SDS011;47304;47.456;19.160;2023-11-21T04:40:33;19.40;;;12.50;;
61435;SDS011;47304;47.456;19.160;2023-11-21T04:43:02;21.40;;;13.00;;
61435;SDS011;47304;47.456;19.160;2023-11-21T04:45:30;22.00;;;13.60;;
61435;SDS011;47304;47.456;19.160;2023-11-21T04:47:59;23.50;;;13.00;;
61435;SDS011;47304;47.456;19.160;2023-11-21T04:50:27;21.20;;;13.50;;
61435;SDS011;47304;47.456;19.160;2023-11-21T04:52:56;22.10;;;13.80;;
61435;SDS011;47304;47.456;19.160;2023-11-21T04:55:25;21.40;;;14.00;;
61435;SDS011;47304;47.456;19.160;2023-11-21T04:57:53;25.10;;;13.60;;
61435;SDS011;47304;47.456;19.160;2023-11-21T05:00:22;24.50;;;16.50;;
61435;SDS011;47304;47.456;19.160;2023-11-21T05:02:51;26.30;;;15.00;;
61435;SDS011;47304;47.456;19.160;2023-11-21T05:05:20;28.00;;;15.60;;
61435;SDS011;47304;47.456;19.160;2023-11-21T05:07:49;26.10;;;14.30;;
61435;SDS011;47304;47.456;19.160;2023-11-21T05:10:17;21.60;;;13.60;;
61435;SDS011;47304;47.456;19.160;2023-11-21T05:12:46;26.80;;;14.80;;
61435;SDS011;47304;47.456;19.160;2023-11-21T05:15:15;24.60;;;14.20;;
61435;SDS011;47304;47.456;19.160;2023-11-21T05:17:43;22.60;;;14.80;;
61435;SDS011;47304;47.456;19.160;2023-11-21T05:20:13;25.30;;;14.70;;
61435;SDS011;47304;47.456;19.160;2023-11-21T05:22:42;23.40;;;15.00;;
61435;SDS011;47304;47.456;19.160;2023-11-21T05:25:10;24.40;;;15.90;;
61435;SDS011;47304;47.456;19.160;2023-11-21T05:27:38;25.50;;;16.70;;
61435;SDS011;47304;47.456;19.160;2023-11-21T05:30:07;25.70;;;15.10;;
61435;SDS011;47304;47.456;19.160;2023-11-21T05:32:37;25.60;;;15.40;;
61435;SDS011;47304;47.456;19.160;2023-11-21T05:35:06;21.40;;;12.90;;
61435;SDS011;47304;47.456;19.160;2023-11-21T05:37:35;21.70;;;14.40;;
61435;SDS011;47304;47.456;19.160;2023-11-21T05:40:05;24.10;;;14.00;;
61435;SDS011;47304;47.456;19.160;2023-11-21T05:42:35;33.00;;;19.00;;
61435;SDS011;47304;47.456;19.160;2023-11-21T05:45:04;30.30;;;18.20;;
61435;SDS011;47304;47.456;19.160;2023-11-21T05:47:33;27.40;;;18.40;;
61435;SDS011;47304;47.456;19.160;2023-11-21T05:50:03;32.60;;;19.90;;
61435;SDS011;47304;47.456;19.160;2023-11-21T05:52:32;34.20;;;19.10;;
61435;SDS011;47304;47.456;19.160;2023-11-21T05:55:01;27.40;;;17.10;;
61435;SDS011;47304;47.456;19.160;2023-11-21T05:57:30;25.40;;;16.60;;
61435;SDS011;47304;47.456;19.160;2023-11-21T05:59:59;27.90;;;15.80;;
61435;SDS011;47304;47.456;19.160;2023-11-21T06:02:27;24.90;;;16.10;;
61435;SDS011;47304;47.456;19.160;2023-11-21T06:04:56;28.10;;;16.30;;
61435;SDS011;47304;47.456;19.160;2023-11-21T06:07:24;26.80;;;17.50;;
61435;SDS011;47304;47.456;19.160;2023-11-21T06:09:53;23.90;;;15.30;;
61435;SDS011;47304;47.456;19.160;2023-11-21T06:12:21;23.70;;;14.90;;
61435;SDS011;47304;47.456;19.160;2023-11-21T06:14:50;21.40;;;13.80;;
61435;SDS011;47304;47.456;19.160;2023-11-21T06:17:18;26.40;;;14.60;;
61435;SDS011;47304;47.456;19.160;2023-11-21T06:19:46;22.50;;;13.30;;
61435;SDS011;47304;47.456;19.160;2023-11-21T06:22:15;22.60;;;14.10;;
61435;SDS011;47304;47.456;19.160;2023-11-21T06:24:43;25.70;;;14.20;;
61435;SDS011;47304;47.456;19.160;2023-11-21T06:27:12;22.60;;;14.20;;
61435;SDS011;47304;47.456;19.160;2023-11-21T06:29:40;26.40;;;14.70;;
61435;SDS011;47304;47.456;19.160;2023-11-21T06:32:09;26.10;;;14.40;;
61435;SDS011;47304;47.456;19.160;2023-11-21T06:34:38;27.00;;;14.80;;
61435;SDS011;47304;47.456;19.160;2023-11-21T06:37:06;29.20;;;14.80;;
61435;SDS011;47304;47.456;19.160;2023-11-21T06:39:35;28.90;;;17.10;;
61435;SDS011;47304;47.456;19.160;2023-11-21T06:42:04;26.30;;;15.20;;
61435;SDS011;47304;47.456;19.160;2023-11-21T06:44:33;23.10;;;15.40;;
61435;SDS011;47304;47.456;19.160;2023-11-21T06:47:02;23.80;;;13.90;;
61435;SDS011;47304;47.456;19.160;2023-11-21T06:49:31;25.60;;;14.30;;
61435;SDS011;47304;47.456;19.160;2023-11-21T06:51:59;21.60;;;13.20;;
61435;SDS011;47304;47.456;19.160;2023-11-21T06:54:27;25.00;;;13.10;;
61435;SDS011;47304;47.456;19.160;2023-11-21T06:56:57;22.10;;;14.10;;
61435;SDS011;47304;47.456;19.160;2023-11-21T06:59:25;23.90;;;13.90;;
61435;SDS011;47304;47.456;19.160;2023-11-21T07:01:55;24.00;;;13.80;;
61435;SDS011;47304;47.456;19.160;2023-11-21T07:04:23;23.70;;;14.00;;
61435;SDS011;47304;47.456;19.160;2023-11-21T07:06:52;21.80;;;14.00;;
61435;SDS011;47304;47.456;19.160;2023-11-21T07:09:21;21.80;;;14.30;;
61435;SDS011;47304;47.456;19.160;2023-11-21T07:11:50;23.80;;;13.90;;
61435;SDS011;47304;47.456;19.160;2023-11-21T07:14:18;20.40;;;13.10;;
61435;SDS011;47304;47.456;19.160;2023-11-21T07:16:47;23.10;;;13.20;;
61435;SDS011;47304;47.456;19.160;2023-11-21T07:19:15;20.50;;;12.30;;
61435;SDS011;47304;47.456;19.160;2023-11-21T07:21:44;22.70;;;12.20;;
61435;SDS011;47304;47.456;19.160;2023-11-21T07:24:13;23.80;;;11.40;;
61435;SDS011;47304;47.456;19.160;2023-11-21T07:26:42;21.40;;;11.00;;
61435;SDS011;47304;47.456;19.160;2023-11-21T07:29:10;25.50;;;10.90;;
61435;SDS011;47304;47.456;19.160;2023-11-21T07:31:38;20.20;;;11.10;;
61435;SDS011;47304;47.456;19.160;2023-11-21T07:34:07;22.50;;;11.40;;
61435;SDS011;47304;47.456;19.160;2023-11-21T07:36:35;19.80;;;10.60;;
61435;SDS011;47304;47.456;19.160;2023-11-21T07:39:03;21.80;;;11.90;;
61435;SDS011;47304;47.456;19.160;2023-11-21T07:41:32;23.10;;;11.00;;
61435;SDS011;47304;47.456;19.160;2023-11-21T07:44:00;20.80;;;11.20;;
61435;SDS011;47304;47.456;19.160;2023-11-21T07:46:29;21.50;;;9.60;;
61435;SDS011;47304;47.456;19.160;2023-11-21T07:48:57;15.80;;;10.00;;
61435;SDS011;47304;47.456;19.160;2023-11-21T07:51:26;20.80;;;10.00;;
61435;SDS011;47304;47.456;19.160;2023-11-21T07:53:54;18.60;;;10.10;;
61435;SDS011;47304;47.456;19.160;2023-11-21T07:56:23;18.00;;;9.60;;
61435;SDS011;47304;47.456;19.160;2023-11-21T07:58:51;16.80;;;9.30;;
61435;SDS011;47304;47.456;19.160;2023-11-21T08:01:20;17.10;;;8.40;;
61435;SDS011;47304;47.456;19.160;2023-11-21T08:03:49;15.70;;;8.90;;
61435;SDS011;47304;47.456;19.160;2023-11-21T08:06:18;15.40;;;8.10;;
61435;SDS011;47304;47.456;19.160;2023-11-21T08:08:46;17.20;;;8.60;;
61435;SDS011;47304;47.456;19.160;2023-11-21T08:11:15;16.80;;;9.00;;
61435;SDS011;47304;47.456;19.160;2023-11-21T08:13:43;18.40;;;9.40;;
61435;SDS011;47304;47.456;19.160;2023-11-21T08:16:11;17.90;;;9.40;;
61435;SDS011;47304;47.456;19.160;2023-11-21T08:18:40;17.00;;;9.50;;
61435;SDS011;47304;47.456;19.160;2023-11-21T08:21:09;19.20;;;10.20;;
61435;SDS011;47304;47.456;19.160;2023-11-21T08:23:38;18.00;;;10.50;;
61435;SDS011;47304;47.456;19.160;2023-11-21T08:26:07;17.30;;;9.40;;
61435;SDS011;47304;47.456;19.160;2023-11-21T08:28:35;15.90;;;8.30;;
61435;SDS011;47304;47.456;19.160;2023-11-21T08:31:04;18.40;;;9.10;;
61435;SDS011;47304;47.456;19.160;2023-11-21T08:33:33;15.20;;;7.60;;
61435;SDS011;47304;47.456;19.160;2023-11-21T08:36:06;17.40;;;8.60;;
61435;SDS011;47304;47.456;19.160;2023-11-21T08:38:35;16.10;;;8.20;;
61435;SDS011;47304;47.456;19.160;2023-11-21T08:41:04;13.00;;;7.00;;
61435;SDS011;47304;47.456;19.160;2023-11-21T08:43:34;14.10;;;6.70;;
61435;SDS011;47304;47.456;19.160;2023-11-21T08:46:02;13.60;;;6.20;;
61435;SDS011;47304;47.456;19.160;2023-11-21T08:48:32;14.70;;;6.40;;
61435;SDS011;47304;47.456;19.160;2023-11-21T08:51:01;12.00;;;6.00;;
61435;SDS011;47304;47.456;19.160;2023-11-21T08:53:30;14.50;;;8.20;;
61435;SDS011;47304;47.456;19.160;2023-11-21T08:55:58;43.20;;;19.20;;
61435;SDS011;47304;47.456;19.160;2023-11-21T08:58:27;35.60;;;14.40;;
61435;SDS011;47304;47.456;19.160;2023-11-21T09:00:57;28.40;;;13.50;;
61435;SDS011;47304;47.456;19.160;2023-11-21T09:03:25;18.40;;;10.20;;
61435;SDS011;47304;47.456;19.160;2023-11-21T09:05:53;15.80;;;8.80;;
61435;SDS011;47304;47.456;19.160;2023-11-21T09:08:22;14.40;;;8.70;;
61435;SDS011;47304;47.456;19.160;2023-11-21T09:10:51;17.40;;;9.20;;
61435;SDS011;47304;47.456;19.160;2023-11-21T09:13:20;19.30;;;9.90;;
61435;SDS011;47304;47.456;19.160;2023-11-21T09:15:48;18.10;;;9.40;;
61435;SDS011;47304;47.456;19.160;2023-11-21T09:18:17;18.50;;;9.20;;
61435;SDS011;47304;47.456;19.160;2023-11-21T09:20:45;20.60;;;9.30;;
61435;SDS011;47304;47.456;19.160;2023-11-21T09:23:14;20.40;;;9.00;;
61435;SDS011;47304;47.456;19.160;2023-11-21T09:25:42;15.20;;;7.30;;
61435;SDS011;47304;47.456;19.160;2023-11-21T09:28:11;16.00;;;7.70;;
61435;SDS011;47304;47.456;19.160;2023-11-21T09:30:40;12.70;;;7.20;;
61435;SDS011;47304;47.456;19.160;2023-11-21T09:33:09;13.70;;;7.40;;
61435;SDS011;47304;47.456;19.160;2023-11-21T09:35:38;14.60;;;6.90;;
61435;SDS011;47304;47.456;19.160;2023-11-21T09:38:06;14.50;;;7.40;;
61435;SDS011;47304;47.456;19.160;2023-11-21T09:40:35;13.60;;;7.30;;
61435;SDS011;47304;47.456;19.160;2023-11-21T09:43:05;16.40;;;7.70;;
61435;SDS011;47304;47.456;19.160;2023-11-21T09:45:36;17.60;;;7.90;;
61435;SDS011;47304;47.456;19.160;2023-11-21T09:48:07;17.60;;;8.20;;
61435;SDS011;47304;47.456;19.160;2023-11-21T09:50:37;14.80;;;8.70;;
61435;SDS011;47304;47.456;19.160;2023-11-21T09:53:11;21.50;;;10.30;;
61435;SDS011;47304;47.456;19.160;2023-11-21T09:55:44;19.10;;;9.70;;
61435;SDS011;47304;47.456;19.160;2023-11-21T09:58:13;19.40;;;10.00;;
61435;SDS011;47304;47.456;19.160;2023-11-21T10:00:43;19.80;;;9.70;;
61435;SDS011;47304;47.456;19.160;2023-11-21T10:03:12;18.70;;;9.90;;
61435;SDS011;47304;47.456;19.160;2023-11-21T10:05:43;20.80;;;10.90;;
61435;SDS011;47304;47.456;19.160;2023-11-21T10:08:12;18.30;;;10.00;;
61435;SDS011;47304;47.456;19.160;2023-11-21T10:10:42;19.80;;;10.40;;
61435;SDS011;47304;47.456;19.160;2023-11-21T10:13:13;19.10;;;10.20;;
61435;SDS011;47304;47.456;19.160;2023-11-21T10:15:44;19.00;;;10.60;;
61435;SDS011;47304;47.456;19.160;2023-11-21T10:18:18;17.40;;;10.40;;
61435;SDS011;47304;47.456;19.160;2023-11-21T10:20:47;16.50;;;10.50;;
61435;SDS011;47304;47.456;19.160;2023-11-21T10:23:15;21.30;;;11.30;;
61435;SDS011;47304;47.456;19.160;2023-11-21T10:25:44;20.50;;;12.20;;
61435;SDS011;47304;47.456;19.160;2023-11-21T10:28:13;21.00;;;12.80;;
61435;SDS011;47304;47.456;19.160;2023-11-21T10:30:41;19.60;;;12.40;;
61435;SDS011;47304;47.456;19.160;2023-11-21T10:33:10;20.90;;;11.20;;
61435;SDS011;47304;47.456;19.160;2023-11-21T10:35:45;20.80;;;11.80;;
61435;SDS011;47304;47.456;19.160;2023-11-21T10:38:14;21.30;;;11.70;;
61435;SDS011;47304;47.456;19.160;2023-11-21T10:40:43;22.30;;;12.40;;
61435;SDS011;47304;47.456;19.160;2023-11-21T10:43:12;22.40;;;12.40;;
61435;SDS011;47304;47.456;19.160;2023-11-21T10:45:40;24.10;;;13.00;;
61435;SDS011;47304;47.456;19.160;2023-11-21T10:48:10;25.00;;;13.10;;
61435;SDS011;47304;47.456;19.160;2023-11-21T10:50:40;23.40;;;14.40;;
61435;SDS011;47304;47.456;19.160;2023-11-21T10:53:09;29.40;;;14.10;;
61435;SDS011;47304;47.456;19.160;2023-11-21T10:55:38;21.60;;;12.50;;
61435;SDS011;47304;47.456;19.160;2023-11-21T10:58:06;22.90;;;13.90;;
61435;SDS011;47304;47.456;19.160;2023-11-21T11:00:37;25.20;;;14.30;;
61435;SDS011;47304;47.456;19.160;2023-11-21T11:03:07;23.20;;;13.40;;
61435;SDS011;47304;47.456;19.160;2023-11-21T11:05:35;24.80;;;13.70;;
61435;SDS011;47304;47.456;19.160;2023-11-21T11:08:04;25.60;;;13.70;;
61435;SDS011;47304;47.456;19.160;2023-11-21T11:10:35;23.70;;;13.80;;
61435;SDS011;47304;47.456;19.160;2023-11-21T11:13:04;24.60;;;13.70;;
61435;SDS011;47304;47.456;19.160;2023-11-21T11:15:34;22.70;;;13.20;;
61435;SDS011;47304;47.456;19.160;2023-11-21T11:18:02;22.00;;;13.00;;
61435;SDS011;47304;47.456;19.160;2023-11-21T11:20:32;22.80;;;12.60;;
61435;SDS011;47304;47.456;19.160;2023-11-21T11:26:12;22.10;;;12.40;;
61435;SDS011;47304;47.456;19.160;2023-11-21T11:28:55;21.60;;;12.50;;
61435;SDS011;47304;47.456;19.160;2023-11-21T11:31:33;19.00;;;11.90;;
61435;SDS011;47304;47.456;19.160;2023-11-21T11:34:14;23.40;;;11.60;;
61435;SDS011;47304;47.456;19.160;2023-11-21T11:36:52;23.00;;;13.00;;
61435;SDS011;47304;47.456;19.160;2023-11-21T11:39:30;22.20;;;12.80;;
61435;SDS011;47304;47.456;19.160;2023-11-21T11:42:03;22.70;;;12.30;;
61435;SDS011;47304;47.456;19.160;2023-11-21T11:44:48;22.90;;;12.60;;
61435;SDS011;47304;47.456;19.160;2023-11-21T11:47:19;22.80;;;12.10;;
61435;SDS011;47304;47.456;19.160;2023-11-21T11:49:59;22.90;;;12.90;;
61435;SDS011;47304;47.456;19.160;2023-11-21T11:52:36;21.50;;;12.70;;
61435;SDS011;47304;47.456;19.160;2023-11-21T11:55:06;24.10;;;12.90;;
61435;SDS011;47304;47.456;19.160;2023-11-21T11:57:36;23.80;;;12.40;;
61435;SDS011;47304;47.456;19.160;2023-11-21T12:00:12;20.60;;;12.70;;
61435;SDS011;47304;47.456;19.160;2023-11-21T12:02:43;26.80;;;14.60;;
61435;SDS011;47304;47.456;19.160;2023-11-21T12:05:13;20.20;;;12.50;;
61435;SDS011;47304;47.456;19.160;2023-11-21T12:07:43;20.20;;;13.60;;
61435;SDS011;47304;47.456;19.160;2023-11-21T12:10:13;28.00;;;13.70;;
61435;SDS011;47304;47.456;19.160;2023-11-21T12:12:44;21.50;;;13.70;;
61435;SDS011;47304;47.456;19.160;2023-11-21T12:15:13;23.20;;;13.20;;
61435;SDS011;47304;47.456;19.160;2023-11-21T12:17:42;24.70;;;14.30;;
61435;SDS011;47304;47.456;19.160;2023-11-21T12:20:12;23.50;;;14.60;;
61435;SDS011;47304;47.456;19.160;2023-11-21T12:22:40;26.90;;;15.50;;
61435;SDS011;47304;47.456;19.160;2023-11-21T12:25:10;24.50;;;13.40;;
61435;SDS011;47304;47.456;19.160;2023-11-21T12:27:38;22.70;;;12.40;;
61435;SDS011;47304;47.456;19.160;2023-11-21T12:30:07;22.60;;;12.80;;
61435;SDS011;47304;47.456;19.160;2023-11-21T12:32:37;23.10;;;12.70;;
61435;SDS011;47304;47.456;19.160;2023-11-21T12:35:06;21.80;;;12.50;;
61435;SDS011;47304;47.456;19.160;2023-11-21T12:37:35;21.80;;;12.20;;
61435;SDS011;47304;47.456;19.160;2023-11-21T12:40:04;22.10;;;13.10;;
61435;SDS011;47304;47.456;19.160;2023-11-21T12:42:34;21.40;;;12.80;;
61435;SDS011;47304;47.456;19.160;2023-11-21T12:45:10;20.90;;;12.20;;
61435;SDS011;47304;47.456;19.160;2023-11-21T12:47:47;18.80;;;11.60;;
61435;SDS011;47304;47.456;19.160;2023-11-21T12:50:16;27.30;;;17.40;;
61435;SDS011;47304;47.456;19.160;2023-11-21T12:52:47;21.80;;;13.50;;
61435;SDS011;47304;47.456;19.160;2023-11-21T12:55:17;23.30;;;14.50;;
61435;SDS011;47304;47.456;19.160;2023-11-21T12:57:47;22.50;;;14.00;;
61435;SDS011;47304;47.456;19.160;2023-11-21T13:00:20;21.30;;;11.50;;
61435;SDS011;47304;47.456;19.160;2023-11-21T13:02:54;28.50;;;16.50;;
61435;SDS011;47304;47.456;19.160;2023-11-21T13:05:28;29.00;;;18.20;;
61435;SDS011;47304;47.456;19.160;2023-11-21T13:07:58;23.00;;;13.50;;
61435;SDS011;47304;47.456;19.160;2023-11-21T13:10:29;25.60;;;13.20;;
61435;SDS011;47304;47.456;19.160;2023-11-21T13:12:58;27.70;;;15.20;;
61435;SDS011;47304;47.456;19.160;2023-11-21T13:15:27;22.40;;;13.30;;
61435;SDS011;47304;47.456;19.160;2023-11-21T13:17:56;20.40;;;10.80;;
61435;SDS011;47304;47.456;19.160;2023-11-21T13:20:25;16.90;;;9.60;;
61435;SDS011;47304;47.456;19.160;2023-11-21T13:22:54;21.10;;;10.80;;
61435;SDS011;47304;47.456;19.160;2023-11-21T13:25:24;21.00;;;12.00;;
61435;SDS011;47304;47.456;19.160;2023-11-21T13:27:53;18.00;;;11.10;;
61435;SDS011;47304;47.456;19.160;2023-11-21T13:30:22;17.30;;;11.10;;
61435;SDS011;47304;47.456;19.160;2023-11-21T13:32:51;19.00;;;10.80;;
61435;SDS011;47304;47.456;19.160;2023-11-21T13:35:20;19.00;;;10.20;;
61435;SDS011;47304;47.456;19.160;2023-11-21T13:37:49;15.60;;;9.70;;
61435;SDS011;47304;47.456;19.160;2023-11-21T13:40:21;19.30;;;12.80;;
61435;SDS011;47304;47.456;19.160;2023-11-21T13:42:50;21.10;;;12.80;;
61435;SDS011;47304;47.456;19.160;2023-11-21T13:45:18;23.70;;;15.60;;
61435;SDS011;47304;47.456;19.160;2023-11-21T13:47:47;21.20;;;15.30;;
61435;SDS011;47304;47.456;19.160;2023-11-21T13:50:16;19.00;;;12.00;;
61435;SDS011;47304;47.456;19.160;2023-11-21T13:52:45;20.30;;;10.40;;
61435;SDS011;47304;47.456;19.160;2023-11-21T13:55:13;20.40;;;11.00;;
61435;SDS011;47304;47.456;19.160;2023-11-21T13:57:42;17.90;;;10.60;;
61435;SDS011;47304;47.456;19.160;2023-11-21T14:00:11;18.40;;;10.60;;
61435;SDS011;47304;47.456;19.160;2023-11-21T14:02:40;18.30;;;11.60;;
61435;SDS011;47304;47.456;19.160;2023-11-21T14:05:08;21.00;;;12.90;;
61435;SDS011;47304;47.456;19.160;2023-11-21T14:07:37;17.70;;;11.80;;
61435;SDS011;47304;47.456;19.160;2023-11-21T14:10:06;18.40;;;11.90;;
61435;SDS011;47304;47.456;19.160;2023-11-21T14:12:35;17.80;;;11.30;;
61435;SDS011;47304;47.456;19.160;2023-11-21T14:15:04;20.10;;;12.00;;
61435;SDS011;47304;47.456;19.160;2023-11-21T14:17:33;19.90;;;12.20;;
61435;SDS011;47304;47.456;19.160;2023-11-21T14:20:01;19.60;;;12.40;;
61435;SDS011;47304;47.456;19.160;2023-11-21T14:22:31;17.20;;;11.30;;
61435;SDS011;47304;47.456;19.160;2023-11-21T14:24:59;20.10;;;13.20;;